createdAt,value
2022-08-16T00:03:18.612Z,12.5
2022-08-16T00:18:32.232Z,12.5
2022-08-16T00:33:25.236Z,12.5
2022-08-16T00:48:46.026Z,12.5
2022-08-16T01:03:42.853Z,12.5
2022-08-16T01:18:43.712Z,12.5
2022-08-16T01:33:35.845Z,12.5
2022-08-16T01:48:29.800Z,12.5
2022-08-16T02:03:32.889Z,12.5
2022-08-16T02:18:27.476Z,12.5
2022-08-16T02:33:51.955Z,12.5
2022-08-16T02:48:34.237Z,12.5
2022-08-16T03:03:18.182Z,12.5
2022-08-16T03:18:42.217Z,12.5
2022-08-16T03:33:09.338Z,12.5
2022-08-16T03:48:18.351Z,12.5
2022-08-16T04:03:12.272Z,12.5
2022-08-16T04:18:14.912Z,12.5
2022-08-16T04:33:12.948Z,12.5
2022-08-16T04:48:35.753Z,12.5
2022-08-16T05:03:17.030Z,12.5
2022-08-16T05:18:29.875Z,12.5
2022-08-16T05:33:20.631Z,12.5
2022-08-16T05:48:29.752Z,12.5
2022-08-16T06:03:19.824Z,12.5
2022-08-16T06:18:29.169Z,12.5
2022-08-16T06:33:25.330Z,12.5
2022-08-16T06:48:35.519Z,12.5
2022-08-16T07:03:58.861Z,12.5
2022-08-16T07:18:27.262Z,12.5
2022-08-16T07:33:57.737Z,12.5
2022-08-16T07:48:26.807Z,12.5
2022-08-16T08:03:51.369Z,12.5
2022-08-16T08:19:04.593Z,12.5
2022-08-16T08:33:32.557Z,12.5
2022-08-16T08:48:38.088Z,12.5
2022-08-16T09:03:21.988Z,12.6
2022-08-16T09:18:40.238Z,12.6
2022-08-16T09:33:10.549Z,12.7
2022-08-16T09:48:10.817Z,12.9
2022-08-16T10:03:12.373Z,13.1
2022-08-16T10:19:10.151Z,13.2
2022-08-16T10:33:16.762Z,13.3
2022-08-16T10:48:32.313Z,13.4
2022-08-16T11:03:57.206Z,13.4
2022-08-16T11:19:15.999Z,13.4
2022-08-16T11:33:51.591Z,13.5
2022-08-16T11:48:16.918Z,13.5
2022-08-16T12:03:17.149Z,13.4
2022-08-16T12:18:24.575Z,13.4
2022-08-16T12:33:29.316Z,13.4
2022-08-16T12:48:38.569Z,13.4
2022-08-16T13:03:24.034Z,13.4
2022-08-16T13:18:37.365Z,13.4
2022-08-16T13:33:32.939Z,13.3
2022-08-16T13:48:45.556Z,13.3
2022-08-16T14:03:27.109Z,13.3
2022-08-16T14:18:33.314Z,13.4
2022-08-16T14:33:40.790Z,13.5
2022-08-16T14:48:30.380Z,13.5
2022-08-16T15:05:56.305Z,13.7
2022-08-16T15:21:01.404Z,13.7
2022-08-16T15:36:00.616Z,13.7
2022-08-16T15:51:01.089Z,13.7
2022-08-16T16:06:03.091Z,13.7
2022-08-16T16:21:03.353Z,13.7
2022-08-16T16:36:23.160Z,13.6
2022-08-16T16:51:11.548Z,13.4
2022-08-16T17:06:13.560Z,13.3
2022-08-16T17:21:07.598Z,13.2
2022-08-16T17:36:54.753Z,13.1
2022-08-16T17:51:09.046Z,13
2022-08-16T18:06:10.339Z,13
2022-08-16T18:21:11.734Z,12.9
2022-08-16T18:36:23.043Z,12.8
2022-08-16T18:51:27.818Z,12.8
2022-08-16T19:06:15.725Z,12.8
2022-08-16T19:21:16.646Z,12.7
2022-08-16T19:36:38.605Z,12.7
2022-08-16T19:51:16.694Z,12.7
2022-08-16T20:06:40.506Z,12.7
2022-08-16T20:21:20.140Z,12.6
2022-08-16T20:36:19.898Z,12.6
2022-08-16T21:03:08.270Z,12.5
2022-08-16T21:18:09.590Z,12.5
2022-08-16T21:33:08.082Z,12.5
2022-08-16T21:48:10.173Z,12.5
2022-08-16T22:03:11.277Z,12.5
2022-08-16T22:18:11.695Z,12.5
2022-08-16T22:33:11.962Z,12.5
2022-08-16T22:48:13.128Z,12.5
2022-08-16T23:03:14.579Z,12.5
2022-08-16T23:18:14.539Z,12.5
2022-08-16T23:33:15.829Z,12.5
2022-08-16T23:48:16.857Z,12.5
